Time;durP1;ratioP1;P1;durP2;ratioP2;P2;SDS_P1;SDS_P2;PMS_P1;PMS_P2;Temp;Humidity;BMP_temperature;BMP_pressure;BME280_temperature;BME280_humidity;BME280_pressure;Samples;Min_cycle;Max_cycle;Signal;HPM_P1;HPM_P2
2024/02/19 00:01:21;;;;;;;;;;;17.70;66.70;;;;;;5018692;28;1818;-67
2024/02/19 00:03:47;;;;;;;;;;;17.70;66.70;;;;;;5014828;28;1329;-68
2024/02/19 00:06:13;;;;;;;;;;;17.70;66.70;;;;;;5021663;28;1906;-68
2024/02/19 00:08:39;;;;;;;;;;;17.70;66.70;;;;;;5019912;28;1372;-69
2024/02/19 00:11:04;;;;;;;;;;;17.70;66.70;;;;;;5017148;28;1448;-69
2024/02/19 00:13:30;;;;;;;;;;;17.70;66.80;;;;;;5017857;28;1180;-67
2024/02/19 00:15:55;;;;;;;;;;;17.70;66.80;;;;;;5021500;28;1471;-70
2024/02/19 00:18:23;;;;;;;;;;;17.70;66.80;;;;;;5018679;28;1396;-69
2024/02/19 00:20:49;;;;;;;;;;;17.70;66.80;;;;;;5020319;28;1338;-70
2024/02/19 00:23:14;;;;;;;;;;;17.70;66.80;;;;;;5018345;28;1540;-70
2024/02/19 00:25:40;;;;;;;;;;;17.70;66.80;;;;;;5018340;28;1894;-69
2024/02/19 00:28:06;;;;;;;;;;;17.70;66.80;;;;;;5018675;28;1580;-71
2024/02/19 00:30:31;;;;;;;;;;;17.70;66.80;;;;;;5004169;28;1606;-70
2024/02/19 00:32:57;;;;;;;;;;;17.70;66.90;;;;;;5019175;28;1298;-69
2024/02/19 00:35:22;;;;;;;;;;;17.70;66.90;;;;;;5019153;28;2268;-69
2024/02/19 00:37:48;;;;;;;;;;;17.70;66.90;;;;;;5017237;28;1464;-68
2024/02/19 00:40:13;;;;;;;;;;;17.70;66.90;;;;;;5024275;28;1553;-69
2024/02/19 00:42:39;;;;;;;;;;;17.60;66.90;;;;;;5022130;28;1503;-69
2024/02/19 00:45:05;;;;;;;;;;;17.70;66.90;;;;;;5022094;28;1969;-71
2024/02/19 00:47:30;;;;;;;;;;;17.60;66.90;;;;;;5022739;28;1129;-68
2024/02/19 00:49:56;;;;;;;;;;;17.60;66.90;;;;;;5022564;28;1465;-70
2024/02/19 00:52:21;;;;;;;;;;;17.60;66.90;;;;;;5005555;28;1619;-70
2024/02/19 00:54:47;;;;;;;;;;;17.60;66.90;;;;;;5021501;28;1450;-69
2024/02/19 00:57:12;;;;;;;;;;;17.70;67.00;;;;;;5023357;28;1792;-69
2024/02/19 00:59:37;;;;;;;;;;;17.60;67.00;;;;;;5019927;28;1316;-69
2024/02/19 01:02:07;;;;;;;;;;;17.60;67.00;;;;;;5021825;28;1328;-69
2024/02/19 01:04:32;;;;;;;;;;;17.60;67.00;;;;;;5021978;28;1600;-68
2024/02/19 01:06:58;;;;;;;;;;;17.60;67.00;;;;;;5020716;28;1969;-68
2024/02/19 01:09:23;;;;;;;;;;;17.60;67.00;;;;;;5021857;28;1564;-68
2024/02/19 01:11:49;;;;;;;;;;;17.60;67.00;;;;;;5020676;28;1599;-68
2024/02/19 01:14:14;;;;;;;;;;;17.60;67.00;;;;;;5021692;28;1487;-67
2024/02/19 01:16:40;;;;;;;;;;;17.60;67.00;;;;;;5020841;28;1552;-67
2024/02/19 01:19:05;;;;;;;;;;;17.60;67.00;;;;;;5021555;28;1654;-67
2024/02/19 01:21:31;;;;;;;;;;;17.60;67.10;;;;;;5025008;28;1539;-68
2024/02/19 01:23:56;;;;;;;;;;;17.60;67.10;;;;;;5022107;28;1547;-68
2024/02/19 01:26:22;;;;;;;;;;;17.60;67.10;;;;;;5022228;28;1967;-68
2024/02/19 01:28:47;;;;;;;;;;;17.60;67.10;;;;;;5021846;28;1320;-69
2024/02/19 01:31:13;;;;;;;;;;;17.60;67.10;;;;;;5018523;28;1461;-69
2024/02/19 01:33:39;;;;;;;;;;;17.60;67.10;;;;;;5022464;28;1436;-69
2024/02/19 01:36:05;;;;;;;;;;;17.60;67.10;;;;;;5020039;28;1457;-67
2024/02/19 01:38:30;;;;;;;;;;;17.60;67.10;;;;;;5023782;28;1283;-68
2024/02/19 01:40:56;;;;;;;;;;;17.60;67.10;;;;;;5021776;28;1362;-68
2024/02/19 01:43:22;;;;;;;;;;;17.60;67.10;;;;;;5024146;28;1137;-69
2024/02/19 01:45:47;;;;;;;;;;;17.60;67.10;;;;;;5020495;28;1959;-68
2024/02/19 01:48:13;;;;;;;;;;;17.60;67.10;;;;;;5007832;28;1608;-68
2024/02/19 01:50:38;;;;;;;;;;;17.60;67.10;;;;;;5018575;28;1606;-68
2024/02/19 01:53:06;;;;;;;;;;;17.60;67.10;;;;;;5022849;28;1140;-68
2024/02/19 01:55:32;;;;;;;;;;;17.60;67.10;;;;;;5019645;28;1333;-68
2024/02/19 01:57:57;;;;;;;;;;;17.60;67.10;;;;;;5017564;28;1192;-68
2024/02/19 02:00:23;;;;;;;;;;;17.60;67.10;;;;;;5019985;28;1374;-68
2024/02/19 02:02:48;;;;;;;;;;;17.60;67.20;;;;;;5022424;28;1328;-68
2024/02/19 02:05:15;;;;;;;;;;;17.60;67.10;;;;;;5017864;28;2409;-68
2024/02/19 02:07:41;;;;;;;;;;;17.60;67.20;;;;;;5027637;28;946;-68
2024/02/19 02:10:07;;;;;;;;;;;17.60;67.10;;;;;;5029290;28;1339;-68
2024/02/19 02:12:32;;;;;;;;;;;17.60;67.10;;;;;;5020738;28;1468;-68
2024/02/19 02:14:58;;;;;;;;;;;17.60;67.10;;;;;;5019774;28;1491;-68
2024/02/19 02:17:23;;;;;;;;;;;17.60;67.10;;;;;;5020789;28;1782;-68
2024/02/19 02:19:49;;;;;;;;;;;17.60;67.10;;;;;;5010779;28;1721;-67
2024/02/19 02:22:14;;;;;;;;;;;17.60;67.20;;;;;;5021495;28;1557;-67
2024/02/19 02:24:40;;;;;;;;;;;17.60;67.20;;;;;;5019574;28;1121;-67
2024/02/19 02:27:06;;;;;;;;;;;17.60;67.20;;;;;;5020235;28;1966;-68
2024/02/19 02:29:32;;;;;;;;;;;17.60;67.20;;;;;;5018921;28;1334;-68
2024/02/19 02:31:57;;;;;;;;;;;17.60;67.20;;;;;;5020912;28;1567;-67
2024/02/19 02:34:23;;;;;;;;;;;17.60;67.20;;;;;;5021941;28;1859;-68
2024/02/19 02:36:48;;;;;;;;;;;17.60;67.20;;;;;;5023530;28;1345;-68
2024/02/19 02:39:14;;;;;;;;;;;17.60;67.20;;;;;;5021911;28;1538;-67
2024/02/19 02:41:40;;;;;;;;;;;17.50;67.20;;;;;;5023330;28;1657;-67
2024/02/19 02:44:06;;;;;;;;;;;17.60;67.20;;;;;;5018264;28;1244;-67
2024/02/19 02:46:34;;;;;;;;;;;17.60;67.20;;;;;;5019065;28;1899;-67
2024/02/19 02:49:00;;;;;;;;;;;17.60;67.30;;;;;;5018900;28;1384;-67
2024/02/19 02:51:25;;;;;;;;;;;17.50;67.20;;;;;;5021330;28;1292;-67
2024/02/19 02:53:53;;;;;;;;;;;17.60;67.30;;;;;;5021151;28;1266;-67
2024/02/19 02:56:19;;;;;;;;;;;17.60;67.30;;;;;;5017884;28;1471;-67
2024/02/19 02:58:48;;;;;;;;;;;17.50;67.20;;;;;;5020534;28;1454;-67
2024/02/19 03:01:17;;;;;;;;;;;17.50;67.20;;;;;;5020442;28;1355;-67
2024/02/19 03:03:42;;;;;;;;;;;17.50;67.20;;;;;;5026949;28;1496;-68
2024/02/19 03:06:08;;;;;;;;;;;17.50;67.20;;;;;;5019906;28;1973;-67
2024/02/19 03:08:33;;;;;;;;;;;17.50;67.20;;;;;;5019600;28;1390;-68
2024/02/19 03:10:59;;;;;;;;;;;17.50;67.20;;;;;;5019063;28;1311;-68
2024/02/19 03:13:25;;;;;;;;;;;17.50;67.20;;;;;;5019571;28;1406;-68
2024/02/19 03:15:50;;;;;;;;;;;17.50;67.30;;;;;;5019634;28;1235;-68
2024/02/19 03:18:16;;;;;;;;;;;17.50;67.20;;;;;;5020070;28;1348;-68
2024/02/19 03:20:41;;;;;;;;;;;17.50;67.20;;;;;;5017785;28;1347;-69
2024/02/19 03:23:07;;;;;;;;;;;17.50;67.30;;;;;;5027249;28;1399;-68
2024/02/19 03:25:32;;;;;;;;;;;17.50;67.30;;;;;;5017402;28;1918;-68
2024/02/19 03:27:58;;;;;;;;;;;17.50;67.30;;;;;;5021680;28;1446;-68
2024/02/19 03:30:23;;;;;;;;;;;17.50;67.30;;;;;;5020410;28;1650;-67
2024/02/19 03:32:49;;;;;;;;;;;17.50;67.30;;;;;;5017539;28;1343;-67
2024/02/19 03:35:14;;;;;;;;;;;17.50;67.30;;;;;;5017295;28;1276;-68
2024/02/19 03:37:39;;;;;;;;;;;17.50;67.30;;;;;;5018106;28;1400;-67
2024/02/19 03:40:08;;;;;;;;;;;17.50;67.30;;;;;;5020052;28;1461;-67
2024/02/19 03:42:34;;;;;;;;;;;17.50;67.30;;;;;;5018861;28;1478;-68
2024/02/19 03:44:59;;;;;;;;;;;17.50;67.40;;;;;;5019466;28;1282;-68
2024/02/19 03:47:25;;;;;;;;;;;17.50;67.40;;;;;;5021041;28;1918;-69
2024/02/19 03:49:50;;;;;;;;;;;17.50;67.40;;;;;;5018591;28;1531;-69
2024/02/19 03:52:17;;;;;;;;;;;17.50;67.40;;;;;;5017841;28;1511;-69
2024/02/19 03:54:42;;;;;;;;;;;17.50;67.40;;;;;;5019464;28;1496;-68
2024/02/19 03:57:09;;;;;;;;;;;17.50;67.40;;;;;;5003492;28;1467;-69
2024/02/19 03:59:34;;;;;;;;;;;17.50;67.40;;;;;;5020014;28;1461;-68
2024/02/19 04:02:00;;;;;;;;;;;17.50;67.40;;;;;;5020939;28;1667;-69
2024/02/19 04:04:26;;;;;;;;;;;17.50;67.40;;;;;;5018517;28;1563;-69
2024/02/19 04:06:51;;;;;;;;;;;17.50;67.40;;;;;;5019836;28;1973;-69
2024/02/19 04:09:16;;;;;;;;;;;17.50;67.40;;;;;;5018826;28;1475;-69
2024/02/19 04:11:42;;;;;;;;;;;17.50;67.40;;;;;;5021310;28;1251;-68
2024/02/19 04:14:08;;;;;;;;;;;17.50;67.40;;;;;;5021685;28;1115;-67
2024/02/19 04:16:33;;;;;;;;;;;17.50;67.40;;;;;;5019699;28;1353;-67
2024/02/19 04:18:58;;;;;;;;;;;17.50;67.40;;;;;;5023413;28;946;-68
2024/02/19 04:21:24;;;;;;;;;;;17.50;67.40;;;;;;5058266;28;1465;-69
2024/02/19 04:23:50;;;;;;;;;;;17.50;67.50;;;;;;5021890;28;1486;-67
2024/02/19 04:26:15;;;;;;;;;;;17.50;67.40;;;;;;5017683;28;1902;-69
2024/02/19 04:28:40;;;;;;;;;;;17.50;67.50;;;;;;5020421;28;1618;-69
2024/02/19 04:31:06;;;;;;;;;;;17.50;67.50;;;;;;5020975;28;1371;-69
2024/02/19 04:33:31;;;;;;;;;;;17.50;67.50;;;;;;5017955;28;1312;-68
2024/02/19 04:35:57;;;;;;;;;;;17.50;67.50;;;;;;5021207;28;1270;-69
2024/02/19 04:38:23;;;;;;;;;;;17.50;67.50;;;;;;5020574;28;1376;-69
2024/02/19 04:40:48;;;;;;;;;;;17.50;67.50;;;;;;5019328;28;1442;-69
2024/02/19 04:43:14;;;;;;;;;;;17.50;67.50;;;;;;5017889;28;1472;-69
2024/02/19 04:45:39;;;;;;;;;;;17.50;67.50;;;;;;5018611;28;1969;-69
2024/02/19 04:48:05;;;;;;;;;;;17.50;67.50;;;;;;5017462;28;1661;-69
2024/02/19 04:50:30;;;;;;;;;;;17.50;67.50;;;;;;5019738;28;1369;-69
2024/02/19 04:52:56;;;;;;;;;;;17.50;67.50;;;;;;5017418;28;1539;-69
2024/02/19 04:55:21;;;;;;;;;;;17.50;67.50;;;;;;5016499;28;1504;-69
2024/02/19 04:57:47;;;;;;;;;;;17.50;67.50;;;;;;5019957;28;1319;-68
2024/02/19 05:00:12;;;;;;;;;;;17.50;67.50;;;;;;5022669;28;1445;-69
2024/02/19 05:02:38;;;;;;;;;;;17.50;67.50;;;;;;5026449;28;1207;-69
2024/02/19 05:05:03;;;;;;;;;;;17.50;67.50;;;;;;5016445;28;1108;-68
2024/02/19 05:07:29;;;;;;;;;;;17.50;67.50;;;;;;5017581;28;1961;-69
2024/02/19 05:09:55;;;;;;;;;;;17.50;67.50;;;;;;5019145;28;1364;-70
2024/02/19 05:12:20;;;;;;;;;;;17.50;67.50;;;;;;5018348;28;1395;-70
2024/02/19 05:14:46;;;;;;;;;;;17.50;67.50;;;;;;5017185;28;1397;-69
2024/02/19 05:17:11;;;;;;;;;;;17.50;67.40;;;;;;5026353;28;1526;-70
2024/02/19 05:19:37;;;;;;;;;;;17.50;67.30;;;;;;5017541;28;1296;-70
2024/02/19 05:22:02;;;;;;;;;;;17.60;67.20;;;;;;5017225;28;1431;-69
2024/02/19 05:24:28;;;;;;;;;;;17.60;67.10;;;;;;5018713;28;1509;-69
2024/02/19 05:26:53;;;;;;;;;;;17.60;67.10;;;;;;5022313;28;1961;-70
2024/02/19 05:29:19;;;;;;;;;;;17.70;67.00;;;;;;5023429;28;1460;-70
2024/02/19 05:31:45;;;;;;;;;;;17.70;66.90;;;;;;5029905;28;1572;-69
2024/02/19 05:34:10;;;;;;;;;;;17.70;66.80;;;;;;5022602;28;1419;-69
2024/02/19 05:36:36;;;;;;;;;;;17.70;66.70;;;;;;5021409;28;1327;-70
2024/02/19 05:39:01;;;;;;;;;;;17.80;66.70;;;;;;5029921;28;1617;-70
2024/02/19 05:41:27;;;;;;;;;;;17.70;66.60;;;;;;5020956;28;1273;-70
2024/02/19 05:43:53;;;;;;;;;;;17.80;66.50;;;;;;5019852;28;1464;-70
2024/02/19 05:46:19;;;;;;;;;;;17.80;66.40;;;;;;5021491;28;1894;-68
2024/02/19 05:48:44;;;;;;;;;;;17.80;66.30;;;;;;5020517;28;1923;-68
2024/02/19 05:51:13;;;;;;;;;;;17.80;66.30;;;;;;5019567;28;1271;-67
2024/02/19 05:53:38;;;;;;;;;;;17.90;66.30;;;;;;5021650;28;1297;-69
2024/02/19 05:56:04;;;;;;;;;;;17.80;66.10;;;;;;5022553;28;1352;-70
2024/02/19 05:58:32;;;;;;;;;;;17.90;66.20;;;;;;5021301;28;1607;-68
2024/02/19 06:00:58;;;;;;;;;;;17.90;66.10;;;;;;5023073;28;1542;-69
2024/02/19 06:03:25;;;;;;;;;;;17.90;66.00;;;;;;5020206;28;1413;-69
2024/02/19 06:05:50;;;;;;;;;;;17.90;66.00;;;;;;5020923;28;1964;-68
2024/02/19 06:08:16;;;;;;;;;;;17.90;65.90;;;;;;5022683;28;1601;-68
2024/02/19 06:10:45;;;;;;;;;;;17.90;65.90;;;;;;5006566;28;1434;-67
2024/02/19 06:13:14;;;;;;;;;;;17.90;65.80;;;;;;5016933;28;1305;-67
2024/02/19 06:15:42;;;;;;;;;;;17.90;65.80;;;;;;5003201;28;1409;-68
2024/02/19 06:18:07;;;;;;;;;;;18.00;65.80;;;;;;5017141;28;1375;-69
2024/02/19 06:20:36;;;;;;;;;;;18.00;65.70;;;;;;5006073;28;1380;-68
2024/02/19 06:23:02;;;;;;;;;;;18.00;65.70;;;;;;5021850;28;1566;-68
2024/02/19 06:25:28;;;;;;;;;;;18.00;65.70;;;;;;5018415;28;1895;-65
2024/02/19 06:27:57;;;;;;;;;;;18.00;65.60;;;;;;5020223;28;1343;-67
2024/02/19 06:30:22;;;;;;;;;;;18.00;65.60;;;;;;5022070;28;1345;-65
2024/02/19 06:32:48;;;;;;;;;;;18.00;65.50;;;;;;5028167;28;1112;-68
2024/02/19 06:35:13;;;;;;;;;;;18.10;65.50;;;;;;5023212;28;1240;-68
2024/02/19 06:37:39;;;;;;;;;;;18.10;65.50;;;;;;5023390;28;1272;-69
2024/02/19 06:40:06;;;;;;;;;;;18.10;65.50;;;;;;5019868;28;1535;-68
2024/02/19 06:42:32;;;;;;;;;;;18.10;65.50;;;;;;5021959;28;1472;-67
2024/02/19 06:44:57;;;;;;;;;;;18.10;65.50;;;;;;5018197;28;1534;-66
2024/02/19 06:47:23;;;;;;;;;;;18.10;65.50;;;;;;5018011;28;1918;-67
2024/02/19 06:49:48;;;;;;;;;;;18.00;65.40;;;;;;5018739;28;1548;-68
2024/02/19 06:52:13;;;;;;;;;;;18.10;65.50;;;;;;5021047;28;1529;-66
2024/02/19 06:54:39;;;;;;;;;;;18.00;65.40;;;;;;5000580;28;1490;-67
2024/02/19 06:57:05;;;;;;;;;;;18.10;65.50;;;;;;5017281;28;1343;-67
2024/02/19 06:59:30;;;;;;;;;;;18.10;65.50;;;;;;5027638;28;1389;-67
2024/02/19 07:01:56;;;;;;;;;;;18.10;65.50;;;;;;5016536;28;1451;-66
2024/02/19 07:04:21;;;;;;;;;;;18.10;65.50;;;;;;5020176;28;1306;-67
2024/02/19 07:06:47;;;;;;;;;;;18.10;65.50;;;;;;5019991;28;1930;-68
2024/02/19 07:09:12;;;;;;;;;;;18.10;65.50;;;;;;5021819;28;1316;-69
2024/02/19 07:11:38;;;;;;;;;;;18.10;65.60;;;;;;5019467;28;1497;-67
2024/02/19 07:14:03;;;;;;;;;;;18.00;65.50;;;;;;5018104;28;1501;-70
2024/02/19 07:16:29;;;;;;;;;;;18.00;65.50;;;;;;5016432;28;1066;-69
2024/02/19 07:18:54;;;;;;;;;;;18.00;65.60;;;;;;5013623;28;1537;-69
2024/02/19 07:21:20;;;;;;;;;;;18.00;65.60;;;;;;5017518;28;1371;-69
2024/02/19 07:23:46;;;;;;;;;;;18.00;65.60;;;;;;5006007;28;1550;-69
2024/02/19 07:26:12;;;;;;;;;;;18.00;65.60;;;;;;5020679;28;1969;-69
2024/02/19 07:28:37;;;;;;;;;;;18.00;65.70;;;;;;5017285;28;1549;-68
2024/02/19 07:31:03;;;;;;;;;;;18.00;65.70;;;;;;5018081;28;1483;-68
2024/02/19 07:33:28;;;;;;;;;;;18.00;65.70;;;;;;5026612;28;1290;-69
2024/02/19 07:35:54;;;;;;;;;;;18.00;65.70;;;;;;5020630;28;1533;-69
2024/02/19 07:38:22;;;;;;;;;;;18.00;65.70;;;;;;5018632;28;1589;-69
2024/02/19 07:40:48;;;;;;;;;;;18.00;65.80;;;;;;5020435;28;1428;-69
2024/02/19 07:43:13;;;;;;;;;;;18.00;65.80;;;;;;5002542;28;1118;-69
2024/02/19 07:45:39;;;;;;;;;;;18.00;65.80;;;;;;5025785;28;1954;-69
2024/02/19 07:48:06;;;;;;;;;;;18.00;65.80;;;;;;5018982;28;1896;-70
2024/02/19 07:50:32;;;;;;;;;;;18.00;65.80;;;;;;5019279;28;1273;-70
2024/02/19 07:52:58;;;;;;;;;;;18.00;65.80;;;;;;5019654;28;1574;-70
2024/02/19 07:55:23;;;;;;;;;;;18.00;65.80;;;;;;5018489;28;1348;-67
2024/02/19 07:57:49;;;;;;;;;;;18.00;65.80;;;;;;5021594;28;1233;-68
2024/02/19 08:00:15;;;;;;;;;;;18.00;65.80;;;;;;5019194;28;1484;-69
2024/02/19 08:02:40;;;;;;;;;;;18.00;65.90;;;;;;5017265;28;1380;-69
2024/02/19 08:05:06;;;;;;;;;;;18.00;65.80;;;;;;5020536;28;1523;-68
2024/02/19 08:07:31;;;;;;;;;;;18.00;65.80;;;;;;5020047;28;1902;-68
2024/02/19 08:09:57;;;;;;;;;;;17.90;65.80;;;;;;5015619;28;1466;-68
2024/02/19 08:12:23;;;;;;;;;;;18.00;65.90;;;;;;5016235;28;1388;-68
2024/02/19 08:14:48;;;;;;;;;;;17.90;65.80;;;;;;5017692;28;1468;-69
2024/02/19 08:17:14;;;;;;;;;;;18.00;65.90;;;;;;5020514;28;1640;-68
2024/02/19 08:19:39;;;;;;;;;;;17.90;65.80;;;;;;5021111;28;1277;-68
2024/02/19 08:22:05;;;;;;;;;;;17.90;65.80;;;;;;5016844;28;1460;-69
2024/02/19 08:24:30;;;;;;;;;;;17.90;65.90;;;;;;5017456;28;1540;-69
2024/02/19 08:26:56;;;;;;;;;;;17.90;65.90;;;;;;5022165;28;1906;-68
2024/02/19 08:29:21;;;;;;;;;;;17.90;66.00;;;;;;5000205;28;1630;-69
2024/02/19 08:31:47;;;;;;;;;;;18.00;66.00;;;;;;5022646;28;1751;-70
2024/02/19 08:34:12;;;;;;;;;;;18.00;66.00;;;;;;5051442;28;1495;-68
2024/02/19 08:36:38;;;;;;;;;;;17.90;66.00;;;;;;5017188;28;1434;-68
2024/02/19 08:39:03;;;;;;;;;;;17.90;66.10;;;;;;5017223;28;1611;-69
2024/02/19 08:41:29;;;;;;;;;;;17.90;66.10;;;;;;5026406;28;1703;-68
2024/02/19 08:43:55;;;;;;;;;;;17.90;66.10;;;;;;5018919;28;1690;-68
2024/02/19 08:46:20;;;;;;;;;;;17.90;66.10;;;;;;5026899;28;1902;-68
2024/02/19 08:48:46;;;;;;;;;;;17.90;66.10;;;;;;5019485;28;1362;-68
2024/02/19 08:51:11;;;;;;;;;;;17.90;66.10;;;;;;5019249;28;1509;-69
2024/02/19 08:53:37;;;;;;;;;;;17.90;66.10;;;;;;5018709;28;1568;-68
2024/02/19 08:56:03;;;;;;;;;;;17.90;66.10;;;;;;5017418;28;1414;-68
2024/02/19 08:58:30;;;;;;;;;;;17.90;66.10;;;;;;5018879;28;1739;-67
2024/02/19 09:00:57;;;;;;;;;;;17.90;66.10;;;;;;5021919;28;1654;-69
2024/02/19 09:03:23;;;;;;;;;;;17.90;66.10;;;;;;5008525;28;1565;-68
2024/02/19 09:05:49;;;;;;;;;;;17.90;66.10;;;;;;5016579;28;1970;-67
2024/02/19 09:08:14;;;;;;;;;;;18.00;66.10;;;;;;5023593;28;1402;-68
2024/02/19 09:10:40;;;;;;;;;;;17.90;66.00;;;;;;5021105;28;1493;-70
2024/02/19 09:13:06;;;;;;;;;;;17.90;65.90;;;;;;5021511;28;1522;-68
2024/02/19 09:15:32;;;;;;;;;;;18.00;65.90;;;;;;5013672;28;1518;-68
2024/02/19 09:17:57;;;;;;;;;;;18.00;65.90;;;;;;5023320;28;1256;-68
2024/02/19 09:20:22;;;;;;;;;;;18.00;65.80;;;;;;5020599;28;1419;-68
2024/02/19 09:22:48;;;;;;;;;;;18.00;65.80;;;;;;5022000;28;1457;-68
2024/02/19 09:25:13;;;;;;;;;;;18.00;65.70;;;;;;5021262;28;1422;-68
2024/02/19 09:27:39;;;;;;;;;;;18.10;65.70;;;;;;5020479;28;1973;-68
2024/02/19 09:30:05;;;;;;;;;;;18.00;65.60;;;;;;5019282;28;1478;-70
2024/02/19 09:32:30;;;;;;;;;;;18.00;65.60;;;;;;5056235;28;1536;-69
2024/02/19 09:34:56;;;;;;;;;;;18.10;65.70;;;;;;5024169;28;1369;-70
2024/02/19 09:37:25;;;;;;;;;;;18.00;65.60;;;;;;5022657;28;1538;-68
2024/02/19 09:39:57;;;;;;;;;;;18.10;65.60;;;;;;5021878;28;1762;-68
2024/02/19 09:42:22;;;;;;;;;;;18.10;65.60;;;;;;5021444;28;1512;-69
2024/02/19 09:44:48;;;;;;;;;;;18.00;65.60;;;;;;5022372;28;1314;-70
2024/02/19 09:47:13;;;;;;;;;;;18.00;65.60;;;;;;5023567;28;1894;-69
2024/02/19 09:49:39;;;;;;;;;;;18.00;65.60;;;;;;5022055;28;1376;-69
2024/02/19 09:52:05;;;;;;;;;;;18.00;65.60;;;;;;5018410;28;1528;-70
2024/02/19 09:54:30;;;;;;;;;;;18.00;65.70;;;;;;5023290;28;2368;-70
2024/02/19 09:56:56;;;;;;;;;;;18.00;65.70;;;;;;5020930;28;1629;-69
2024/02/19 09:59:22;;;;;;;;;;;18.00;65.70;;;;;;5023240;28;1351;-70
2024/02/19 10:01:49;;;;;;;;;;;18.00;65.70;;;;;;5019539;28;1618;-69
2024/02/19 10:04:15;;;;;;;;;;;18.00;65.80;;;;;;5022907;28;1462;-70
2024/02/19 10:06:41;;;;;;;;;;;18.00;65.80;;;;;;5021689;28;1973;-69
2024/02/19 10:09:07;;;;;;;;;;;18.00;65.80;;;;;;5022719;28;1416;-69
2024/02/19 10:11:35;;;;;;;;;;;18.00;65.80;;;;;;5023407;28;1454;-70
2024/02/19 10:14:02;;;;;;;;;;;18.00;65.80;;;;;;5022224;28;1606;-69
2024/02/19 10:16:27;;;;;;;;;;;18.00;65.70;;;;;;5021610;28;1550;-70
2024/02/19 10:19:02;;;;;;;;;;;18.00;65.70;;;;;;5027941;28;1303;-70
2024/02/19 10:21:28;;;;;;;;;;;18.00;65.70;;;;;;5020889;28;1628;-70
2024/02/19 10:23:54;;;;;;;;;;;18.10;65.70;;;;;;5016989;28;1843;-68
2024/02/19 10:26:19;;;;;;;;;;;18.10;65.70;;;;;;5008965;28;1906;-70
2024/02/19 10:28:45;;;;;;;;;;;18.10;65.70;;;;;;5019381;28;1236;-70
2024/02/19 10:31:13;;;;;;;;;;;18.10;65.60;;;;;;5021939;28;1422;-71
2024/02/19 10:33:41;;;;;;;;;;;18.10;65.60;;;;;;5020576;28;1505;-71
2024/02/19 10:36:07;;;;;;;;;;;18.10;66.20;;;;;;5018247;28;1344;-70
2024/02/19 10:38:33;;;;;;;;;;;18.10;65.50;;;;;;5018948;28;1132;-72
2024/02/19 10:40:58;;;;;;;;;;;18.10;65.50;;;;;;5003989;28;1362;-69
2024/02/19 10:43:24;;;;;;;;;;;18.10;65.40;;;;;;5022362;28;923;-70
2024/02/19 10:45:52;;;;;;;;;;;18.10;65.40;;;;;;5027008;28;1968;-71
2024/02/19 10:48:17;;;;;;;;;;;18.10;65.40;;;;;;5025688;28;1309;-70
2024/02/19 10:50:46;;;;;;;;;;;18.10;65.40;;;;;;5022949;28;1292;-70
2024/02/19 10:53:12;;;;;;;;;;;18.10;65.30;;;;;;5034754;28;1655;-70
2024/02/19 10:55:38;;;;;;;;;;;18.10;65.40;;;;;;5047148;28;1557;-70
2024/02/19 10:58:11;;;;;;;;;;;18.10;65.40;;;;;;5021070;28;1582;-69
2024/02/19 11:00:36;;;;;;;;;;;18.10;65.40;;;;;;5012754;28;1339;-70
2024/02/19 11:03:05;;;;;;;;;;;18.10;65.40;;;;;;5025292;28;1695;-69
2024/02/19 11:05:34;;;;;;;;;;;18.10;65.40;;;;;;5022605;28;1938;-69
2024/02/19 11:08:00;;;;;;;;;;;18.10;65.50;;;;;;5017244;28;1170;-70
2024/02/19 11:10:37;;;;;;;;;;;18.10;65.50;;;;;;5020546;28;1742;-70
2024/02/19 11:13:06;;;;;;;;;;;18.10;65.60;;;;;;5019677;28;1263;-70
2024/02/19 11:15:31;;;;;;;;;;;18.10;65.60;;;;;;5020062;28;2397;-69
2024/02/19 11:18:07;;;;;;;;;;;18.10;65.60;;;;;;5021139;28;1022;-70
2024/02/19 11:20:32;;;;;;;;;;;18.10;65.60;;;;;;5019635;28;1549;-70
2024/02/19 11:22:58;;;;;;;;;;;18.10;65.60;;;;;;5017238;28;1976;-67
2024/02/19 11:25:24;;;;;;;;;;;18.10;65.60;;;;;;5020383;28;1910;-69
2024/02/19 11:27:50;;;;;;;;;;;18.10;65.60;;;;;;5023751;28;1258;-69
2024/02/19 11:30:16;;;;;;;;;;;18.10;65.50;;;;;;5016539;28;1616;-69
2024/02/19 11:32:42;;;;;;;;;;;18.10;65.60;;;;;;5012944;28;1522;-69
2024/02/19 11:35:13;;;;;;;;;;;18.10;65.50;;;;;;5017374;28;1530;-69
2024/02/19 11:37:39;;;;;;;;;;;18.10;65.50;;;;;;5017508;28;1391;-69
2024/02/19 11:40:05;;;;;;;;;;;18.10;65.50;;;;;;5018833;28;1530;-69
2024/02/19 11:42:30;;;;;;;;;;;18.10;65.50;;;;;;5019158;28;1693;-69
2024/02/19 11:44:57;;;;;;;;;;;18.10;65.40;;;;;;5018483;28;1430;-69
2024/02/19 11:47:22;;;;;;;;;;;18.10;65.40;;;;;;5017849;28;1966;-69
2024/02/19 11:49:48;;;;;;;;;;;18.10;65.40;;;;;;5017495;28;1457;-69
2024/02/19 11:52:14;;;;;;;;;;;18.10;65.30;;;;;;5018780;28;1418;-69
2024/02/19 11:54:39;;;;;;;;;;;18.20;65.30;;;;;;5018538;28;1354;-69
2024/02/19 11:57:07;;;;;;;;;;;18.20;65.30;;;;;;5018655;28;1497;-69
2024/02/19 11:59:33;;;;;;;;;;;18.20;65.20;;;;;;5019635;28;1437;-69
2024/02/19 12:01:58;;;;;;;;;;;18.20;65.20;;;;;;5049330;28;1431;-69
2024/02/19 12:04:24;;;;;;;;;;;18.20;65.20;;;;;;5017551;28;1470;-67
2024/02/19 12:06:50;;;;;;;;;;;18.20;65.20;;;;;;5018200;28;1894;-67
2024/02/19 12:09:15;;;;;;;;;;;18.20;65.20;;;;;;5018133;28;1943;-68
2024/02/19 12:11:41;;;;;;;;;;;18.20;65.90;;;;;;5018104;28;2177;-68
2024/02/19 12:14:10;;;;;;;;;;;18.20;65.10;;;;;;5018172;28;1465;-68
2024/02/19 12:16:35;;;;;;;;;;;18.20;65.10;;;;;;5026221;28;1531;-68
2024/02/19 12:19:01;;;;;;;;;;;18.20;65.10;;;;;;5002357;28;1615;-68
2024/02/19 12:21:27;;;;;;;;;;;18.20;65.00;;;;;;5016728;28;1438;-68
2024/02/19 12:23:53;;;;;;;;;;;18.20;65.10;;;;;;5015600;28;1396;-68
2024/02/19 12:26:19;;;;;;;;;;;18.20;65.10;;;;;;5016766;28;1878;-68
2024/02/19 12:28:44;;;;;;;;;;;18.20;65.10;;;;;;5025552;28;1584;-68
2024/02/19 12:31:10;;;;;;;;;;;18.20;65.10;;;;;;5019848;28;1401;-68
2024/02/19 12:33:37;;;;;;;;;;;18.20;65.10;;;;;;5018854;28;1587;-68
2024/02/19 12:36:11;;;;;;;;;;;18.20;65.20;;;;;;5023332;28;1320;-68
2024/02/19 12:38:41;;;;;;;;;;;18.20;65.20;;;;;;5027595;28;1516;-68
2024/02/19 12:41:16;;;;;;;;;;;18.20;65.20;;;;;;5023997;28;1464;-68
2024/02/19 12:43:42;;;;;;;;;;;18.20;65.20;;;;;;5021240;28;1491;-69
2024/02/19 12:46:08;;;;;;;;;;;18.20;65.30;;;;;;5009665;28;1967;-68
2024/02/19 12:48:34;;;;;;;;;;;18.20;65.30;;;;;;5024393;28;1553;-68
2024/02/19 12:51:01;;;;;;;;;;;18.10;65.30;;;;;;5025411;28;1633;-68
2024/02/19 12:53:28;;;;;;;;;;;18.20;65.50;;;;;;5022370;28;1555;-68
2024/02/19 12:55:53;;;;;;;;;;;18.10;65.40;;;;;;5023659;28;1684;-69
2024/02/19 12:58:19;;;;;;;;;;;18.10;65.40;;;;;;5025990;28;1439;-68
2024/02/19 13:00:44;;;;;;;;;;;18.10;65.40;;;;;;5022573;28;1511;-68
2024/02/19 13:03:13;;;;;;;;;;;18.10;65.40;;;;;;5023187;28;1512;-69
2024/02/19 13:05:39;;;;;;;;;;;18.10;65.50;;;;;;5029054;28;1910;-69
2024/02/19 13:08:04;;;;;;;;;;;18.10;65.50;;;;;;5028488;28;1557;-69
2024/02/19 13:10:31;;;;;;;;;;;18.10;65.50;;;;;;5055065;28;1442;-70
2024/02/19 13:12:57;;;;;;;;;;;18.10;65.50;;;;;;5027142;28;1619;-69
2024/02/19 13:15:25;;;;;;;;;;;18.10;65.50;;;;;;5010417;28;1672;-69
2024/02/19 13:17:50;;;;;;;;;;;18.10;65.50;;;;;;5027260;28;1437;-68
2024/02/19 13:20:16;;;;;;;;;;;18.10;65.60;;;;;;5027039;28;1500;-69
2024/02/19 13:22:42;;;;;;;;;;;18.10;65.60;;;;;;5025727;28;1253;-69
2024/02/19 13:25:08;;;;;;;;;;;18.10;65.60;;;;;;5025032;28;1389;-69
2024/02/19 13:27:33;;;;;;;;;;;18.10;65.60;;;;;;5012743;28;1903;-68
2024/02/19 13:30:01;;;;;;;;;;;18.10;65.60;;;;;;5028644;28;1303;-69
2024/02/19 13:32:27;;;;;;;;;;;18.10;65.60;;;;;;5027376;28;920;-69
2024/02/19 13:34:52;;;;;;;;;;;18.10;65.60;;;;;;5025362;28;1451;-69
2024/02/19 13:37:18;;;;;;;;;;;18.10;65.60;;;;;;5026816;28;1591;-69
2024/02/19 13:39:44;;;;;;;;;;;18.10;65.70;;;;;;5026391;28;1502;-69
2024/02/19 13:42:10;;;;;;;;;;;18.10;65.60;;;;;;5024025;28;1495;-69
2024/02/19 13:44:35;;;;;;;;;;;18.10;65.70;;;;;;5016894;28;1270;-68
2024/02/19 13:47:00;;;;;;;;;;;18.10;65.70;;;;;;5023485;28;1957;-70
2024/02/19 13:49:26;;;;;;;;;;;18.10;65.60;;;;;;5023095;28;1330;-69
2024/02/19 13:51:51;;;;;;;;;;;18.10;65.70;;;;;;5024964;28;1298;-69
2024/02/19 13:54:17;;;;;;;;;;;18.10;65.70;;;;;;5019905;28;1478;-70
2024/02/19 13:56:42;;;;;;;;;;;18.10;65.70;;;;;;5020345;28;1334;-69
2024/02/19 13:59:10;;;;;;;;;;;18.10;65.70;;;;;;5020844;28;1371;-69
2024/02/19 14:01:36;;;;;;;;;;;18.10;65.70;;;;;;5020253;28;1870;-70
2024/02/19 14:04:01;;;;;;;;;;;18.10;65.80;;;;;;5018959;28;1659;-69
2024/02/19 14:06:27;;;;;;;;;;;18.10;65.80;;;;;;5018458;28;1944;-68
2024/02/19 14:08:53;;;;;;;;;;;18.10;65.80;;;;;;5006864;28;1802;-69
2024/02/19 14:11:19;;;;;;;;;;;18.10;65.80;;;;;;5024795;28;1355;-68
2024/02/19 14:13:45;;;;;;;;;;;18.00;65.80;;;;;;5020044;28;1427;-70
2024/02/19 14:16:10;;;;;;;;;;;18.00;65.80;;;;;;5022493;28;1364;-69
2024/02/19 14:18:36;;;;;;;;;;;18.00;65.80;;;;;;5019005;28;1014;-70
2024/02/19 14:21:02;;;;;;;;;;;18.00;65.80;;;;;;5020897;28;1321;-70
2024/02/19 14:23:28;;;;;;;;;;;18.00;65.90;;;;;;5021193;28;1150;-71